sensor_id;sensor_type;location;lat;lon;timestamp;temperature;humidity
7296;DHT22;40758;54.038;11.684;2022-08-30T00:00:18;18.60;99.90
7296;DHT22;40758;54.038;11.684;2022-08-30T00:03:07;18.60;99.90
7296;DHT22;40758;54.038;11.684;2022-08-30T00:05:41;18.50;99.90
7296;DHT22;40758;54.038;11.684;2022-08-30T00:08:12;18.50;99.90
7296;DHT22;40758;54.038;11.684;2022-08-30T00:10:42;18.50;99.90
7296;DHT22;40758;54.038;11.684;2022-08-30T00:13:12;18.50;99.90
7296;DHT22;40758;54.038;11.684;2022-08-30T00:15:42;18.60;99.90
7296;DHT22;40758;54.038;11.684;2022-08-30T00:18:11;18.50;99.90
7296;DHT22;40758;54.038;11.684;2022-08-30T00:20:41;18.60;99.90
7296;DHT22;40758;54.038;11.684;2022-08-30T00:23:13;18.60;99.90
7296;DHT22;40758;54.038;11.684;2022-08-30T00:25:42;18.60;99.90
7296;DHT22;40758;54.038;11.684;2022-08-30T00:28:12;18.60;99.90
7296;DHT22;40758;54.038;11.684;2022-08-30T00:30:43;18.60;99.90
7296;DHT22;40758;54.038;11.684;2022-08-30T00:33:14;18.50;99.90
7296;DHT22;40758;54.038;11.684;2022-08-30T00:35:43;18.60;99.90
7296;DHT22;40758;54.038;11.684;2022-08-30T00:38:13;18.60;99.90
7296;DHT22;40758;54.038;11.684;2022-08-30T00:40:43;18.60;99.90
7296;DHT22;40758;54.038;11.684;2022-08-30T00:43:17;18.50;99.90
7296;DHT22;40758;54.038;11.684;2022-08-30T00:45:50;18.60;99.90
7296;DHT22;40758;54.038;11.684;2022-08-30T00:48:19;18.50;99.90
7296;DHT22;40758;54.038;11.684;2022-08-30T00:50:53;18.50;99.90
7296;DHT22;40758;54.038;11.684;2022-08-30T00:53:29;18.50;99.90
7296;DHT22;40758;54.038;11.684;2022-08-30T00:56:01;18.50;99.90
7296;DHT22;40758;54.038;11.684;2022-08-30T00:58:34;18.50;99.90
7296;DHT22;40758;54.038;11.684;2022-08-30T01:01:07;18.50;99.90
7296;DHT22;40758;54.038;11.684;2022-08-30T01:05:20;18.50;99.90
7296;DHT22;40758;54.038;11.684;2022-08-30T01:07:50;18.50;99.90
7296;DHT22;40758;54.038;11.684;2022-08-30T01:10:19;18.50;99.90
7296;DHT22;40758;54.038;11.684;2022-08-30T01:12:49;18.50;99.90
7296;DHT22;40758;54.038;11.684;2022-08-30T01:15:17;18.50;99.90
7296;DHT22;40758;54.038;11.684;2022-08-30T01:17:46;18.50;99.90
7296;DHT22;40758;54.038;11.684;2022-08-30T01:20:20;18.60;99.90
7296;DHT22;40758;54.038;11.684;2022-08-30T01:23:07;18.50;99.90
7296;DHT22;40758;54.038;11.684;2022-08-30T01:25:40;18.50;99.90
7296;DHT22;40758;54.038;11.684;2022-08-30T01:28:14;18.50;99.90
7296;DHT22;40758;54.038;11.684;2022-08-30T01:30:47;18.50;99.90
7296;DHT22;40758;54.038;11.684;2022-08-30T01:33:16;18.50;99.90
7296;DHT22;40758;54.038;11.684;2022-08-30T01:35:48;18.50;99.90
7296;DHT22;40758;54.038;11.684;2022-08-30T01:38:24;18.50;99.90
7296;DHT22;40758;54.038;11.684;2022-08-30T01:40:58;18.50;99.90
7296;DHT22;40758;54.038;11.684;2022-08-30T01:43:28;18.50;99.90
7296;DHT22;40758;54.038;11.684;2022-08-30T01:45:56;18.50;99.90
7296;DHT22;40758;54.038;11.684;2022-08-30T01:48:26;18.60;99.90
7296;DHT22;40758;54.038;11.684;2022-08-30T01:50:57;18.60;99.90
7296;DHT22;40758;54.038;11.684;2022-08-30T01:53:27;18.50;99.90
7296;DHT22;40758;54.038;11.684;2022-08-30T01:55:56;18.50;99.90
7296;DHT22;40758;54.038;11.684;2022-08-30T01:58:25;18.50;99.90
7296;DHT22;40758;54.038;11.684;2022-08-30T02:00:55;18.50;99.90
7296;DHT22;40758;54.038;11.684;2022-08-30T02:03:24;18.50;99.90
7296;DHT22;40758;54.038;11.684;2022-08-30T02:05:56;18.50;99.90
7296;DHT22;40758;54.038;11.684;2022-08-30T02:08:30;18.50;99.90
7296;DHT22;40758;54.038;11.684;2022-08-30T02:11:00;18.50;99.90
7296;DHT22;40758;54.038;11.684;2022-08-30T02:13:29;18.50;99.90
7296;DHT22;40758;54.038;11.684;2022-08-30T02:15:58;18.60;99.90
7296;DHT22;40758;54.038;11.684;2022-08-30T02:18:27;18.60;99.90
7296;DHT22;40758;54.038;11.684;2022-08-30T02:20:56;18.60;99.90
7296;DHT22;40758;54.038;11.684;2022-08-30T02:23:24;18.60;99.90
7296;DHT22;40758;54.038;11.684;2022-08-30T02:25:58;18.50;99.90
7296;DHT22;40758;54.038;11.684;2022-08-30T02:28:27;18.50;99.90
7296;DHT22;40758;54.038;11.684;2022-08-30T02:30:56;18.50;99.90
7296;DHT22;40758;54.038;11.684;2022-08-30T02:33:25;18.60;99.90
7296;DHT22;40758;54.038;11.684;2022-08-30T02:35:53;18.60;99.90
7296;DHT22;40758;54.038;11.684;2022-08-30T02:38:23;18.60;99.90
7296;DHT22;40758;54.038;11.684;2022-08-30T02:40:54;18.60;99.90
7296;DHT22;40758;54.038;11.684;2022-08-30T02:43:22;18.60;99.90
7296;DHT22;40758;54.038;11.684;2022-08-30T02:45:52;18.50;99.90
7296;DHT22;40758;54.038;11.684;2022-08-30T02:48:21;18.60;99.90
7296;DHT22;40758;54.038;11.684;2022-08-30T02:50:51;18.60;99.90
7296;DHT22;40758;54.038;11.684;2022-08-30T02:53:21;18.60;99.90
7296;DHT22;40758;54.038;11.684;2022-08-30T02:55:54;18.60;99.90
7296;DHT22;40758;54.038;11.684;2022-08-30T02:58:23;18.60;99.90
7296;DHT22;40758;54.038;11.684;2022-08-30T03:00:52;18.60;99.90
7296;DHT22;40758;54.038;11.684;2022-08-30T03:05:19;18.60;99.90
7296;DHT22;40758;54.038;11.684;2022-08-30T03:07:48;18.60;99.90
7296;DHT22;40758;54.038;11.684;2022-08-30T03:10:17;18.70;99.90
7296;DHT22;40758;54.038;11.684;2022-08-30T03:12:46;18.60;99.90
7296;DHT22;40758;54.038;11.684;2022-08-30T03:15:16;18.70;99.90
7296;DHT22;40758;54.038;11.684;2022-08-30T03:17:44;18.60;99.90
7296;DHT22;40758;54.038;11.684;2022-08-30T03:20:13;18.60;99.90
7296;DHT22;40758;54.038;11.684;2022-08-30T03:22:43;18.60;99.90
7296;DHT22;40758;54.038;11.684;2022-08-30T03:25:12;18.60;99.90
7296;DHT22;40758;54.038;11.684;2022-08-30T03:27:41;18.60;99.90
7296;DHT22;40758;54.038;11.684;2022-08-30T03:30:11;18.70;99.90
7296;DHT22;40758;54.038;11.684;2022-08-30T03:32:41;18.60;99.90
7296;DHT22;40758;54.038;11.684;2022-08-30T03:35:14;18.60;99.90
7296;DHT22;40758;54.038;11.684;2022-08-30T03:37:45;18.60;99.90
7296;DHT22;40758;54.038;11.684;2022-08-30T03:40:22;18.60;99.90
7296;DHT22;40758;54.038;11.684;2022-08-30T03:42:52;18.60;99.90
7296;DHT22;40758;54.038;11.684;2022-08-30T03:45:21;18.60;99.90
7296;DHT22;40758;54.038;11.684;2022-08-30T03:47:49;18.60;99.90
7296;DHT22;40758;54.038;11.684;2022-08-30T03:50:18;18.60;99.90
7296;DHT22;40758;54.038;11.684;2022-08-30T03:52:48;18.70;99.90
7296;DHT22;40758;54.038;11.684;2022-08-30T03:55:16;18.60;99.90
7296;DHT22;40758;54.038;11.684;2022-08-30T03:57:45;18.60;99.90
7296;DHT22;40758;54.038;11.684;2022-08-30T04:00:17;18.60;99.90
7296;DHT22;40758;54.038;11.684;2022-08-30T04:02:46;18.60;99.90
7296;DHT22;40758;54.038;11.684;2022-08-30T04:05:15;18.60;99.90
7296;DHT22;40758;54.038;11.684;2022-08-30T04:07:44;18.50;99.90
7296;DHT22;40758;54.038;11.684;2022-08-30T04:10:15;18.60;99.90
7296;DHT22;40758;54.038;11.684;2022-08-30T04:12:43;18.60;99.90
7296;DHT22;40758;54.038;11.684;2022-08-30T04:15:17;18.60;99.90
7296;DHT22;40758;54.038;11.684;2022-08-30T04:17:47;18.60;99.90
7296;DHT22;40758;54.038;11.684;2022-08-30T04:20:16;18.60;99.90
7296;DHT22;40758;54.038;11.684;2022-08-30T04:22:45;18.60;99.90
7296;DHT22;40758;54.038;11.684;2022-08-30T04:25:15;18.60;99.90
7296;DHT22;40758;54.038;11.684;2022-08-30T04:27:44;18.60;99.90
7296;DHT22;40758;54.038;11.684;2022-08-30T04:30:14;18.60;99.90
7296;DHT22;40758;54.038;11.684;2022-08-30T04:32:50;18.60;99.90
7296;DHT22;40758;54.038;11.684;2022-08-30T04:35:25;18.60;99.90
7296;DHT22;40758;54.038;11.684;2022-08-30T04:37:57;18.70;99.90
7296;DHT22;40758;54.038;11.684;2022-08-30T04:40:27;18.60;99.90
7296;DHT22;40758;54.038;11.684;2022-08-30T04:42:56;18.70;99.90
7296;DHT22;40758;54.038;11.684;2022-08-30T04:45:27;18.70;99.90
7296;DHT22;40758;54.038;11.684;2022-08-30T04:48:09;18.70;99.90
7296;DHT22;40758;54.038;11.684;2022-08-30T04:50:38;18.80;99.90
7296;DHT22;40758;54.038;11.684;2022-08-30T04:53:06;18.80;99.90
7296;DHT22;40758;54.038;11.684;2022-08-30T04:55:38;18.90;99.90
7296;DHT22;40758;54.038;11.684;2022-08-30T04:58:07;19.00;99.90
7296;DHT22;40758;54.038;11.684;2022-08-30T05:00:36;19.00;99.90
7296;DHT22;40758;54.038;11.684;2022-08-30T05:05:19;19.00;99.90
7296;DHT22;40758;54.038;11.684;2022-08-30T05:08:07;19.10;99.90
7296;DHT22;40758;54.038;11.684;2022-08-30T05:10:43;19.10;99.90
7296;DHT22;40758;54.038;11.684;2022-08-30T05:13:14;19.10;99.90
7296;DHT22;40758;54.038;11.684;2022-08-30T05:15:44;19.20;99.90
7296;DHT22;40758;54.038;11.684;2022-08-30T05:18:14;19.20;99.90
7296;DHT22;40758;54.038;11.684;2022-08-30T05:20:44;19.20;99.90
7296;DHT22;40758;54.038;11.684;2022-08-30T05:23:12;19.20;99.90
7296;DHT22;40758;54.038;11.684;2022-08-30T05:25:42;19.30;99.90
7296;DHT22;40758;54.038;11.684;2022-08-30T05:28:12;19.40;99.90
7296;DHT22;40758;54.038;11.684;2022-08-30T05:30:40;19.60;99.90
7296;DHT22;40758;54.038;11.684;2022-08-30T05:33:09;19.70;99.90
7296;DHT22;40758;54.038;11.684;2022-08-30T05:35:38;19.80;99.90
7296;DHT22;40758;54.038;11.684;2022-08-30T05:38:08;20.10;99.90
7296;DHT22;40758;54.038;11.684;2022-08-30T05:40:39;20.50;99.90
7296;DHT22;40758;54.038;11.684;2022-08-30T05:43:09;20.70;99.90
7296;DHT22;40758;54.038;11.684;2022-08-30T05:45:40;20.90;99.90
7296;DHT22;40758;54.038;11.684;2022-08-30T05:48:08;21.20;99.90
7296;DHT22;40758;54.038;11.684;2022-08-30T05:50:38;21.40;99.90
7296;DHT22;40758;54.038;11.684;2022-08-30T05:53:08;21.50;99.90
7296;DHT22;40758;54.038;11.684;2022-08-30T05:55:40;21.70;99.90
7296;DHT22;40758;54.038;11.684;2022-08-30T05:58:08;22.00;99.90
7296;DHT22;40758;54.038;11.684;2022-08-30T06:00:37;22.50;99.90
7296;DHT22;40758;54.038;11.684;2022-08-30T06:03:06;22.30;99.90
7296;DHT22;40758;54.038;11.684;2022-08-30T06:05:38;21.90;99.90
7296;DHT22;40758;54.038;11.684;2022-08-30T06:08:08;21.70;99.90
7296;DHT22;40758;54.038;11.684;2022-08-30T06:10:37;21.60;99.90
7296;DHT22;40758;54.038;11.684;2022-08-30T06:13:08;21.70;99.90
7296;DHT22;40758;54.038;11.684;2022-08-30T06:15:37;21.70;99.90
7296;DHT22;40758;54.038;11.684;2022-08-30T06:18:06;21.40;99.90
7296;DHT22;40758;54.038;11.684;2022-08-30T06:20:38;21.00;99.90
7296;DHT22;40758;54.038;11.684;2022-08-30T06:23:10;20.70;99.90
7296;DHT22;40758;54.038;11.684;2022-08-30T06:25:39;20.50;99.90
7296;DHT22;40758;54.038;11.684;2022-08-30T06:28:08;20.50;99.90
7296;DHT22;40758;54.038;11.684;2022-08-30T06:30:39;20.60;99.90
7296;DHT22;40758;54.038;11.684;2022-08-30T06:33:09;20.80;99.90
7296;DHT22;40758;54.038;11.684;2022-08-30T06:35:38;20.70;99.90
7296;DHT22;40758;54.038;11.684;2022-08-30T06:38:26;20.90;99.90
7296;DHT22;40758;54.038;11.684;2022-08-30T06:40:54;21.10;99.90
7296;DHT22;40758;54.038;11.684;2022-08-30T06:43:23;20.90;99.90
7296;DHT22;40758;54.038;11.684;2022-08-30T06:45:52;20.60;99.90
7296;DHT22;40758;54.038;11.684;2022-08-30T06:48:22;20.80;99.90
7296;DHT22;40758;54.038;11.684;2022-08-30T06:50:52;21.70;99.90
7296;DHT22;40758;54.038;11.684;2022-08-30T06:53:21;23.40;99.90
7296;DHT22;40758;54.038;11.684;2022-08-30T06:55:57;24.70;99.90
7296;DHT22;40758;54.038;11.684;2022-08-30T06:58:28;25.90;99.90
7296;DHT22;40758;54.038;11.684;2022-08-30T07:00:58;26.10;99.90
7296;DHT22;40758;54.038;11.684;2022-08-30T07:05:20;27.20;99.90
7296;DHT22;40758;54.038;11.684;2022-08-30T07:07:50;27.70;99.90
7296;DHT22;40758;54.038;11.684;2022-08-30T07:10:20;28.20;99.90
7296;DHT22;40758;54.038;11.684;2022-08-30T07:12:49;28.40;99.90
7296;DHT22;40758;54.038;11.684;2022-08-30T07:15:18;28.10;99.90
7296;DHT22;40758;54.038;11.684;2022-08-30T07:17:48;28.20;99.90
7296;DHT22;40758;54.038;11.684;2022-08-30T07:20:37;28.30;99.90
7296;DHT22;40758;54.038;11.684;2022-08-30T07:23:06;28.90;99.90
7296;DHT22;40758;54.038;11.684;2022-08-30T07:25:36;28.50;99.90
7296;DHT22;40758;54.038;11.684;2022-08-30T07:28:12;28.30;99.90
7296;DHT22;40758;54.038;11.684;2022-08-30T07:30:40;28.40;99.90
7296;DHT22;40758;54.038;11.684;2022-08-30T07:33:09;28.40;99.90
7296;DHT22;40758;54.038;11.684;2022-08-30T07:35:39;27.80;99.90
7296;DHT22;40758;54.038;11.684;2022-08-30T07:38:11;26.80;99.90
7296;DHT22;40758;54.038;11.684;2022-08-30T07:40:40;26.60;99.90
7296;DHT22;40758;54.038;11.684;2022-08-30T07:43:09;26.90;99.90
7296;DHT22;40758;54.038;11.684;2022-08-30T07:45:38;26.00;99.90
7296;DHT22;40758;54.038;11.684;2022-08-30T07:48:07;24.90;99.90
7296;DHT22;40758;54.038;11.684;2022-08-30T07:50:41;24.20;99.90
7296;DHT22;40758;54.038;11.684;2022-08-30T07:53:11;23.50;99.90
7296;DHT22;40758;54.038;11.684;2022-08-30T07:55:40;22.70;99.90
7296;DHT22;40758;54.038;11.684;2022-08-30T07:58:08;21.90;99.90
7296;DHT22;40758;54.038;11.684;2022-08-30T08:00:37;21.60;99.90
7296;DHT22;40758;54.038;11.684;2022-08-30T08:03:06;21.50;99.90
7296;DHT22;40758;54.038;11.684;2022-08-30T08:05:43;22.50;99.90
7296;DHT22;40758;54.038;11.684;2022-08-30T08:08:12;24.80;99.90
7296;DHT22;40758;54.038;11.684;2022-08-30T08:10:41;27.10;99.90
7296;DHT22;40758;54.038;11.684;2022-08-30T08:13:10;27.70;99.90
7296;DHT22;40758;54.038;11.684;2022-08-30T08:15:39;27.00;99.90
7296;DHT22;40758;54.038;11.684;2022-08-30T08:18:07;26.70;99.90
7296;DHT22;40758;54.038;11.684;2022-08-30T08:20:36;27.50;99.90
7296;DHT22;40758;54.038;11.684;2022-08-30T08:23:07;28.10;99.40
7296;DHT22;40758;54.038;11.684;2022-08-30T08:25:38;27.70;99.50
7296;DHT22;40758;54.038;11.684;2022-08-30T08:28:07;27.70;99.80
7296;DHT22;40758;54.038;11.684;2022-08-30T08:30:37;28.20;95.60
7296;DHT22;40758;54.038;11.684;2022-08-30T08:33:10;28.40;90.60
7296;DHT22;40758;54.038;11.684;2022-08-30T08:35:39;28.40;90.50
7296;DHT22;40758;54.038;11.684;2022-08-30T08:38:09;28.60;91.60
7296;DHT22;40758;54.038;11.684;2022-08-30T08:40:42;27.80;89.10
7296;DHT22;40758;54.038;11.684;2022-08-30T08:43:21;27.30;93.70
7296;DHT22;40758;54.038;11.684;2022-08-30T08:45:56;27.50;93.40
7296;DHT22;40758;54.038;11.684;2022-08-30T08:48:38;27.60;92.70
7296;DHT22;40758;54.038;11.684;2022-08-30T08:51:29;27.60;90.10
7296;DHT22;40758;54.038;11.684;2022-08-30T08:54:35;28.10;86.90
7296;DHT22;40758;54.038;11.684;2022-08-30T08:57:10;28.40;85.40
7296;DHT22;40758;54.038;11.684;2022-08-30T08:59:42;29.20;79.50
7296;DHT22;40758;54.038;11.684;2022-08-30T09:05:23;30.70;69.00
7296;DHT22;40758;54.038;11.684;2022-08-30T09:08:00;30.90;62.50
7296;DHT22;40758;54.038;11.684;2022-08-30T09:10:36;30.60;68.30
7296;DHT22;40758;54.038;11.684;2022-08-30T09:13:16;31.30;67.30
7296;DHT22;40758;54.038;11.684;2022-08-30T09:15:49;31.40;59.10
7296;DHT22;40758;54.038;11.684;2022-08-30T09:18:40;30.90;60.60
7296;DHT22;40758;54.038;11.684;2022-08-30T09:21:14;30.50;58.50
7296;DHT22;40758;54.038;11.684;2022-08-30T09:23:56;30.80;60.30
7296;DHT22;40758;54.038;11.684;2022-08-30T09:26:31;31.40;58.00
7296;DHT22;40758;54.038;11.684;2022-08-30T09:29:02;30.20;59.20
7296;DHT22;40758;54.038;11.684;2022-08-30T09:31:46;30.10;58.40
7296;DHT22;40758;54.038;11.684;2022-08-30T09:34:36;29.70;58.10
7296;DHT22;40758;54.038;11.684;2022-08-30T09:37:27;29.70;58.90
7296;DHT22;40758;54.038;11.684;2022-08-30T09:40:00;30.10;59.30
7296;DHT22;40758;54.038;11.684;2022-08-30T09:42:36;30.20;55.90
7296;DHT22;40758;54.038;11.684;2022-08-30T09:45:20;29.70;58.50
7296;DHT22;40758;54.038;11.684;2022-08-30T09:47:59;30.00;55.50
7296;DHT22;40758;54.038;11.684;2022-08-30T09:50:31;30.40;56.80
7296;DHT22;40758;54.038;11.684;2022-08-30T09:53:15;30.30;54.60
7296;DHT22;40758;54.038;11.684;2022-08-30T09:56:00;30.20;54.60
7296;DHT22;40758;54.038;11.684;2022-08-30T09:58:48;29.10;57.90
7296;DHT22;40758;54.038;11.684;2022-08-30T10:01:31;29.20;60.30
7296;DHT22;40758;54.038;11.684;2022-08-30T10:04:10;29.90;57.10
7296;DHT22;40758;54.038;11.684;2022-08-30T10:06:48;30.20;56.70
7296;DHT22;40758;54.038;11.684;2022-08-30T10:09:28;29.90;55.20
7296;DHT22;40758;54.038;11.684;2022-08-30T10:12:10;29.50;57.30
7296;DHT22;40758;54.038;11.684;2022-08-30T10:14:51;29.60;59.00
7296;DHT22;40758;54.038;11.684;2022-08-30T10:17:40;29.50;56.30
7296;DHT22;40758;54.038;11.684;2022-08-30T10:20:22;29.60;55.50
7296;DHT22;40758;54.038;11.684;2022-08-30T10:23:03;29.80;55.60
7296;DHT22;40758;54.038;11.684;2022-08-30T10:25:40;29.40;54.00
7296;DHT22;40758;54.038;11.684;2022-08-30T10:28:15;29.40;59.00
7296;DHT22;40758;54.038;11.684;2022-08-30T10:30:53;29.80;54.90
7296;DHT22;40758;54.038;11.684;2022-08-30T10:33:29;30.10;51.00
7296;DHT22;40758;54.038;11.684;2022-08-30T10:36:07;29.60;50.30
7296;DHT22;40758;54.038;11.684;2022-08-30T10:38:40;29.30;51.60
7296;DHT22;40758;54.038;11.684;2022-08-30T10:41:21;28.40;53.80
7296;DHT22;40758;54.038;11.684;2022-08-30T10:44:00;28.30;54.30
7296;DHT22;40758;54.038;11.684;2022-08-30T10:46:38;28.50;55.90
7296;DHT22;40758;54.038;11.684;2022-08-30T10:49:17;28.70;54.20
7296;DHT22;40758;54.038;11.684;2022-08-30T10:51:51;28.10;54.70
7296;DHT22;40758;54.038;11.684;2022-08-30T10:54:35;27.50;55.00
7296;DHT22;40758;54.038;11.684;2022-08-30T10:57:11;26.90;58.80
7296;DHT22;40758;54.038;11.684;2022-08-30T10:59:45;26.80;55.50
7296;DHT22;40758;54.038;11.684;2022-08-30T11:05:29;26.30;56.90
7296;DHT22;40758;54.038;11.684;2022-08-30T11:08:18;26.50;60.40
7296;DHT22;40758;54.038;11.684;2022-08-30T11:11:08;27.20;58.10
7296;DHT22;40758;54.038;11.684;2022-08-30T11:13:48;26.80;55.80
7296;DHT22;40758;54.038;11.684;2022-08-30T11:16:34;26.40;58.90
7296;DHT22;40758;54.038;11.684;2022-08-30T11:19:14;26.30;59.40
7296;DHT22;40758;54.038;11.684;2022-08-30T11:21:49;26.30;59.80
7296;DHT22;40758;54.038;11.684;2022-08-30T11:24:19;26.70;59.60
7296;DHT22;40758;54.038;11.684;2022-08-30T11:26:54;26.80;60.60
7296;DHT22;40758;54.038;11.684;2022-08-30T11:29:37;27.00;59.50
7296;DHT22;40758;54.038;11.684;2022-08-30T11:32:55;26.70;59.20
7296;DHT22;40758;54.038;11.684;2022-08-30T11:35:38;26.30;60.00
7296;DHT22;40758;54.038;11.684;2022-08-30T11:38:19;26.00;64.70
7296;DHT22;40758;54.038;11.684;2022-08-30T11:41:33;26.00;66.60
7296;DHT22;40758;54.038;11.684;2022-08-30T11:44:28;26.40;65.10
7296;DHT22;40758;54.038;11.684;2022-08-30T11:46:59;26.50;63.60
7296;DHT22;40758;54.038;11.684;2022-08-30T11:49:56;26.80;63.50
7296;DHT22;40758;54.038;11.684;2022-08-30T11:52:49;26.60;61.80
7296;DHT22;40758;54.038;11.684;2022-08-30T11:55:37;26.00;70.50
7296;DHT22;40758;54.038;11.684;2022-08-30T11:58:19;26.20;67.50
7296;DHT22;40758;54.038;11.684;2022-08-30T12:01:14;25.80;67.20
7296;DHT22;40758;54.038;11.684;2022-08-30T12:04:26;25.30;70.30
7296;DHT22;40758;54.038;11.684;2022-08-30T12:07:07;24.30;78.20
7296;DHT22;40758;54.038;11.684;2022-08-30T12:10:02;24.30;89.20
7296;DHT22;40758;54.038;11.684;2022-08-30T12:12:52;24.30;89.00
7296;DHT22;40758;54.038;11.684;2022-08-30T12:15:51;23.90;82.30
7296;DHT22;40758;54.038;11.684;2022-08-30T12:18:42;23.90;85.10
7296;DHT22;40758;54.038;11.684;2022-08-30T12:21:27;24.30;75.80
7296;DHT22;40758;54.038;11.684;2022-08-30T12:24:16;24.20;72.50
7296;DHT22;40758;54.038;11.684;2022-08-30T12:26:51;23.90;69.70
7296;DHT22;40758;54.038;11.684;2022-08-30T12:29:22;24.00;76.00
7296;DHT22;40758;54.038;11.684;2022-08-30T12:31:55;24.30;67.80
7296;DHT22;40758;54.038;11.684;2022-08-30T12:34:32;24.50;68.60
7296;DHT22;40758;54.038;11.684;2022-08-30T12:37:06;24.50;66.30
7296;DHT22;40758;54.038;11.684;2022-08-30T12:39:39;24.40;67.00
7296;DHT22;40758;54.038;11.684;2022-08-30T12:42:16;24.00;61.20
7296;DHT22;40758;54.038;11.684;2022-08-30T12:44:50;23.70;63.20
7296;DHT22;40758;54.038;11.684;2022-08-30T12:47:22;23.60;66.10
7296;DHT22;40758;54.038;11.684;2022-08-30T12:49:56;23.50;66.10
7296;DHT22;40758;54.038;11.684;2022-08-30T12:52:31;23.30;69.80
7296;DHT22;40758;54.038;11.684;2022-08-30T12:55:13;23.20;71.60
7296;DHT22;40758;54.038;11.684;2022-08-30T12:57:57;23.10;65.70
7296;DHT22;40758;54.038;11.684;2022-08-30T13:00:31;22.60;66.70
7296;DHT22;40758;54.038;11.684;2022-08-30T13:05:32;21.90;72.50
7296;DHT22;40758;54.038;11.684;2022-08-30T13:08:17;21.80;71.00
7296;DHT22;40758;54.038;11.684;2022-08-30T13:10:56;21.60;77.60
7296;DHT22;40758;54.038;11.684;2022-08-30T13:13:37;21.70;76.20
7296;DHT22;40758;54.038;11.684;2022-08-30T13:16:20;21.80;70.90
7296;DHT22;40758;54.038;11.684;2022-08-30T13:19:18;22.00;69.80
7296;DHT22;40758;54.038;11.684;2022-08-30T13:22:00;22.10;71.00
7296;DHT22;40758;54.038;11.684;2022-08-30T13:24:30;22.20;68.80
7296;DHT22;40758;54.038;11.684;2022-08-30T13:27:03;22.20;67.40
7296;DHT22;40758;54.038;11.684;2022-08-30T13:29:35;22.30;70.40
7296;DHT22;40758;54.038;11.684;2022-08-30T13:32:04;22.40;66.40
7296;DHT22;40758;54.038;11.684;2022-08-30T13:34:33;22.50;68.50
7296;DHT22;40758;54.038;11.684;2022-08-30T13:37:04;22.60;69.80
7296;DHT22;40758;54.038;11.684;2022-08-30T13:39:54;23.00;64.60
7296;DHT22;40758;54.038;11.684;2022-08-30T13:42:29;23.50;67.00
7296;DHT22;40758;54.038;11.684;2022-08-30T13:44:58;23.70;62.20
7296;DHT22;40758;54.038;11.684;2022-08-30T13:47:28;24.00;59.70
7296;DHT22;40758;54.038;11.684;2022-08-30T13:49:59;24.20;60.10
7296;DHT22;40758;54.038;11.684;2022-08-30T13:52:29;24.30;60.70
7296;DHT22;40758;54.038;11.684;2022-08-30T13:54:58;24.90;61.20
7296;DHT22;40758;54.038;11.684;2022-08-30T13:57:29;25.40;58.30
7296;DHT22;40758;54.038;11.684;2022-08-30T14:00:19;26.10;58.10
7296;DHT22;40758;54.038;11.684;2022-08-30T14:02:49;26.80;53.10
7296;DHT22;40758;54.038;11.684;2022-08-30T14:05:25;27.30;54.90
7296;DHT22;40758;54.038;11.684;2022-08-30T14:08:19;27.40;49.80
7296;DHT22;40758;54.038;11.684;2022-08-30T14:11:09;26.80;52.20
7296;DHT22;40758;54.038;11.684;2022-08-30T14:13:39;26.40;50.30
7296;DHT22;40758;54.038;11.684;2022-08-30T14:16:30;26.50;52.00
7296;DHT22;40758;54.038;11.684;2022-08-30T14:19:00;26.00;51.00
7296;DHT22;40758;54.038;11.684;2022-08-30T14:21:31;26.00;51.00
7296;DHT22;40758;54.038;11.684;2022-08-30T14:24:02;26.60;50.70
7296;DHT22;40758;54.038;11.684;2022-08-30T14:26:34;26.90;51.40
7296;DHT22;40758;54.038;11.684;2022-08-30T14:29:07;27.40;50.30
7296;DHT22;40758;54.038;11.684;2022-08-30T14:31:37;26.90;50.40
7296;DHT22;40758;54.038;11.684;2022-08-30T14:34:08;27.10;49.70
7296;DHT22;40758;54.038;11.684;2022-08-30T14:36:40;27.30;51.00
7296;DHT22;40758;54.038;11.684;2022-08-30T14:39:13;27.40;50.90
7296;DHT22;40758;54.038;11.684;2022-08-30T14:41:50;26.90;51.50
7296;DHT22;40758;54.038;11.684;2022-08-30T14:44:23;27.00;51.30
7296;DHT22;40758;54.038;11.684;2022-08-30T14:46:54;27.00;51.00
7296;DHT22;40758;54.038;11.684;2022-08-30T14:49:25;27.00;52.40
7296;DHT22;40758;54.038;11.684;2022-08-30T14:51:54;27.20;52.70
7296;DHT22;40758;54.038;11.684;2022-08-30T14:54:30;26.40;51.40
7296;DHT22;40758;54.038;11.684;2022-08-30T14:57:00;26.20;52.60
7296;DHT22;40758;54.038;11.684;2022-08-30T14:59:29;26.30;53.50
7296;DHT22;40758;54.038;11.684;2022-08-30T15:05:19;25.80;53.00
7296;DHT22;40758;54.038;11.684;2022-08-30T15:07:50;25.40;52.00
7296;DHT22;40758;54.038;11.684;2022-08-30T15:10:20;25.50;53.90
7296;DHT22;40758;54.038;11.684;2022-08-30T15:12:50;25.60;53.70
7296;DHT22;40758;54.038;11.684;2022-08-30T15:15:20;26.00;52.80
7296;DHT22;40758;54.038;11.684;2022-08-30T15:17:50;26.60;51.20
7296;DHT22;40758;54.038;11.684;2022-08-30T15:20:20;27.10;50.90
7296;DHT22;40758;54.038;11.684;2022-08-30T15:22:48;27.60;48.60
7296;DHT22;40758;54.038;11.684;2022-08-30T15:25:18;27.80;49.10
7296;DHT22;40758;54.038;11.684;2022-08-30T15:27:47;27.80;47.50
7296;DHT22;40758;54.038;11.684;2022-08-30T15:30:16;27.80;48.90
7296;DHT22;40758;54.038;11.684;2022-08-30T15:32:46;27.90;46.60
7296;DHT22;40758;54.038;11.684;2022-08-30T15:35:14;27.80;45.70
7296;DHT22;40758;54.038;11.684;2022-08-30T15:37:45;27.20;48.20
7296;DHT22;40758;54.038;11.684;2022-08-30T15:40:13;27.60;48.60
7296;DHT22;40758;54.038;11.684;2022-08-30T15:42:43;27.30;47.30
7296;DHT22;40758;54.038;11.684;2022-08-30T15:45:14;26.80;48.50
7296;DHT22;40758;54.038;11.684;2022-08-30T15:47:45;26.50;49.20
7296;DHT22;40758;54.038;11.684;2022-08-30T15:50:15;25.70;51.20
7296;DHT22;40758;54.038;11.684;2022-08-30T15:52:45;25.70;53.70
7296;DHT22;40758;54.038;11.684;2022-08-30T15:55:14;25.20;53.10
7296;DHT22;40758;54.038;11.684;2022-08-30T15:57:42;25.20;52.80
7296;DHT22;40758;54.038;11.684;2022-08-30T16:00:12;25.20;53.50
7296;DHT22;40758;54.038;11.684;2022-08-30T16:02:42;25.30;52.60
7296;DHT22;40758;54.038;11.684;2022-08-30T16:05:14;24.60;55.40
7296;DHT22;40758;54.038;11.684;2022-08-30T16:07:45;24.90;55.70
7296;DHT22;40758;54.038;11.684;2022-08-30T16:10:16;25.10;54.80
7296;DHT22;40758;54.038;11.684;2022-08-30T16:12:45;25.50;55.00
7296;DHT22;40758;54.038;11.684;2022-08-30T16:15:14;25.20;54.30
7296;DHT22;40758;54.038;11.684;2022-08-30T16:17:42;25.40;54.40
7296;DHT22;40758;54.038;11.684;2022-08-30T16:20:11;25.00;53.90
7296;DHT22;40758;54.038;11.684;2022-08-30T16:22:40;24.60;55.10
7296;DHT22;40758;54.038;11.684;2022-08-30T16:25:13;24.90;54.50
7296;DHT22;40758;54.038;11.684;2022-08-30T16:27:42;25.30;54.50
7296;DHT22;40758;54.038;11.684;2022-08-30T16:30:11;25.50;53.50